Terminal Aerodrome Forecast
Issued by NWS

Home | Current Version | Previous Version | Text Only | Print | Product List | Glossary On
Versions: 1 2 3 4 5 6 7 8 9 10 11 12 13 14
000
FTAK31 PANC 010311 AAA
TAFATK
TAF AMD
PATK 010311Z 0103/0124 VRB06KT P6SM VCSH SCT100
      TEMPO 0103/0105 VRB06G18KT
     FM010600 VRB04KT P6SM SKC=

USA.gov is the U.S. government's official web portal to all federal, state and local government web resources and services.